Albany, Texas
Current Conditions -  °F | °C
As of 4:15 AM on Wednesday 22 Oct 2014 (Local Time) from KBKD Reporting Station
Clear Clear  
Wind Chill: 16°   Ceiling: Unl
Heat Index: 16°   Visibility: 10mi
Dew Point: 10°   Wind: 9mph
Humidity: 67%   Direction: 150°SSE
Pressure: 30.06"   Gusts: NA
Location:  32.72°N, 99.3°W
Report Text: KBKD 220915Z AUTO 15008KT 10SM CLR 16/10 A3006 RMK AO2 T01580096
Loading
Personal Weather Stations






























Interactive Weather Map
Tropical Storm Tracking
New forecast layout! Learn more

10-Day Weather Forecast

Advertisements
Track Severe Weather on mobile